Bridgeport, California
Current Conditions -  °F | °C
As of 1:15 AM on Monday 20 Oct 2014 (Local Time) from KMMH Reporting Station
Clear Clear  
Wind Chill: 37°   Ceiling: Unl
Heat Index: 37°   Visibility: 10mi
Dew Point: 28°   Wind: 0mph
Humidity: 70%   Direction: NA
Pressure: 30.14"   Gusts: NA
Location:  38.26°N, 119.23°W
Report Text: KMMH 200815Z AUTO 00000KT 10SM CLR 03/M02 A3014 RMK AO1
Loading
Personal Weather Stations






























Interactive Weather Map
Tropical Storm Tracking
New forecast layout! Learn more

10-Day Weather Forecast

Advertisements
Track Severe Weather on mobile